createdAt,value
2023-04-28T00:00:42.146Z,23.20
2023-04-28T00:03:45.946Z,21.20
2023-04-28T00:06:49.519Z,21.00
2023-04-28T00:09:52.717Z,21.00
2023-04-28T00:12:57.460Z,23.40
2023-04-28T00:16:01.682Z,33.50
2023-04-28T00:19:05.015Z,40.40
2023-04-28T00:22:08.832Z,38.40
2023-04-28T00:25:12.130Z,38.80
2023-04-28T00:28:30.578Z,40.40
2023-04-28T00:31:37.626Z,28.00
2023-04-28T00:34:40.974Z,29.40
2023-04-28T00:37:44.494Z,29.20
2023-04-28T00:40:47.700Z,31.20
2023-04-28T00:43:52.386Z,36.20
2023-04-28T00:46:55.838Z,34.00
2023-04-28T00:49:59.674Z,32.75
2023-04-28T00:53:03.547Z,35.40
2023-04-28T00:56:08.968Z,34.60
2023-04-28T00:59:13.609Z,35.50
2023-04-28T01:02:18.569Z,35.25
2023-04-28T01:05:22.409Z,33.80
2023-04-28T01:08:29.346Z,30.60
2023-04-28T01:11:32.911Z,32.80
2023-04-28T01:14:44.229Z,36.60
2023-04-28T01:17:48.438Z,33.40
2023-04-28T01:20:51.917Z,33.25
2023-04-28T01:23:56.616Z,33.50
2023-04-28T01:26:59.888Z,34.00
2023-04-28T01:30:05.054Z,33.25
2023-04-28T01:33:08.531Z,34.75
2023-04-28T01:36:11.882Z,34.25
2023-04-28T01:39:16.828Z,31.40
2023-04-28T01:42:20.101Z,34.00
2023-04-28T01:45:23.609Z,34.80
2023-04-28T01:48:26.973Z,35.00
2023-04-28T01:51:30.226Z,35.00
2023-04-28T01:54:35.412Z,34.80
2023-04-28T01:57:38.837Z,35.40
2023-04-28T02:00:42.216Z,28.20
2023-04-28T02:03:46.069Z,33.20
2023-04-28T02:06:49.494Z,33.40
2023-04-28T02:09:54.419Z,36.00
2023-04-28T02:12:57.695Z,32.75
2023-04-28T02:16:02.748Z,32.00
2023-04-28T02:19:06.169Z,31.20
2023-04-28T02:22:09.420Z,31.40
2023-04-28T02:25:14.407Z,32.60
2023-04-28T02:28:17.600Z,26.80
2023-04-28T02:31:21.139Z,35.00
2023-04-28T02:34:24.463Z,33.00
2023-04-28T02:37:27.860Z,35.00
2023-04-28T02:40:32.661Z,28.75
2023-04-28T02:43:36.855Z,30.00
2023-04-28T02:46:40.305Z,28.00
2023-04-28T02:49:43.663Z,32.00
2023-04-28T02:52:48.939Z,36.00
2023-04-28T02:55:54.122Z,38.40
2023-04-28T02:58:57.523Z,37.00
2023-04-28T03:02:00.947Z,38.00
2023-04-28T03:05:04.233Z,36.00
2023-04-28T03:08:08.212Z,39.60
2023-04-28T03:11:13.111Z,39.00
2023-04-28T03:14:17.125Z,37.40
2023-04-28T03:17:20.751Z,35.80
2023-04-28T03:20:24.767Z,34.40
2023-04-28T03:23:28.208Z,36.60
2023-04-28T03:26:34.201Z,34.40
2023-04-28T03:29:37.515Z,35.00
2023-04-28T03:32:41.261Z,40.20
2023-04-28T03:35:45.019Z,36.25
2023-04-28T03:38:48.348Z,38.40
2023-04-28T03:41:53.175Z,42.80
2023-04-28T03:45:28.449Z,36.50
2023-04-28T03:48:31.964Z,34.00
2023-04-28T03:51:35.480Z,42.40
2023-04-28T03:54:38.826Z,36.60
2023-04-28T03:57:43.975Z,31.00
2023-04-28T04:00:47.662Z,34.00
2023-04-28T04:03:51.442Z,35.40
2023-04-28T04:06:55.013Z,35.40
2023-04-28T04:09:58.560Z,35.00
2023-04-28T04:13:03.554Z,35.75
2023-04-28T04:16:08.043Z,35.00
2023-04-28T04:19:11.772Z,42.50
2023-04-28T04:22:20.030Z,31.00
2023-04-28T04:25:24.245Z,39.00
2023-04-28T04:28:29.991Z,39.40
2023-04-28T04:31:33.332Z,36.00
2023-04-28T04:34:36.973Z,36.00
2023-04-28T04:37:40.919Z,36.50
2023-04-28T04:40:44.218Z,34.00
2023-04-28T04:43:49.244Z,37.00
2023-04-28T04:46:52.982Z,35.80
2023-04-28T04:49:57.760Z,35.00
2023-04-28T04:53:01.289Z,30.75
2023-04-28T04:56:04.793Z,35.00
2023-04-28T04:59:10.852Z,29.75
2023-04-28T05:02:34.429Z,28.60
2023-04-28T05:05:40.245Z,25.40
2023-04-28T05:08:56.650Z,25.40
2023-04-28T05:12:00.345Z,27.60
2023-04-28T05:15:05.945Z,23.00
2023-04-28T05:18:11.466Z,26.20
2023-04-28T05:21:14.814Z,23.75
2023-04-28T05:24:18.661Z,24.40
2023-04-28T05:27:22.099Z,23.25
2023-04-28T05:30:26.768Z,23.60
2023-04-28T05:33:30.135Z,20.00
2023-04-28T05:36:34.627Z,22.00
2023-04-28T05:39:37.936Z,21.00
2023-04-28T05:42:42.691Z,21.33
2023-04-28T05:45:47.500Z,19.60
2023-04-28T05:48:50.909Z,22.40
2023-04-28T05:51:54.505Z,19.00
2023-04-28T05:54:57.774Z,16.00
2023-04-28T05:58:01.287Z,18.20
2023-04-28T06:01:06.433Z,18.00
2023-04-28T06:04:09.874Z,17.80
2023-04-28T06:07:13.416Z,18.80
2023-04-28T06:10:17.016Z,13.00
2023-04-28T06:13:20.245Z,14.60
2023-04-28T06:16:24.918Z,16.25
2023-04-28T06:19:28.659Z,16.00
2023-04-28T06:22:32.371Z,18.20
2023-04-28T06:25:36.380Z,15.60
2023-04-28T06:28:39.766Z,17.00
2023-04-28T06:31:45.822Z,17.00
2023-04-28T06:34:50.089Z,17.00
2023-04-28T06:37:53.369Z,16.40
2023-04-28T06:40:57.276Z,13.00
2023-04-28T06:44:00.961Z,15.00
2023-04-28T06:47:07.833Z,12.60
2023-04-28T06:50:13.749Z,12.40
2023-04-28T06:53:16.973Z,14.00
2023-04-28T06:56:20.348Z,13.40
2023-04-28T06:59:24.625Z,12.75
2023-04-28T07:02:29.350Z,13.00
2023-04-28T07:05:34.747Z,10.00
2023-04-28T07:08:38.355Z,11.00
2023-04-28T07:11:41.686Z,11.20
2023-04-28T07:14:44.952Z,13.80
2023-04-28T07:17:49.859Z,14.00
2023-04-28T07:20:53.156Z,12.00
2023-04-28T07:23:57.008Z,11.50
2023-04-28T07:27:01.445Z,9.00
2023-04-28T07:30:15.175Z,7.00
2023-04-28T07:33:30.000Z,10.00
2023-04-28T07:36:33.334Z,9.00
2023-04-28T07:39:36.720Z,6.00
2023-04-28T07:42:39.987Z,9.00
2023-04-28T07:45:45.681Z,7.00
2023-04-28T07:48:51.360Z,7.40
2023-04-28T07:51:55.775Z,8.40
2023-04-28T07:54:59.652Z,9.00
2023-04-28T07:58:02.990Z,11.00
2023-04-28T08:01:06.365Z,12.00
2023-04-28T08:04:11.794Z,9.60
2023-04-28T08:07:15.740Z,10.00
2023-04-28T08:10:19.112Z,6.25
2023-04-28T08:13:22.400Z,11.00
2023-04-28T08:16:25.909Z,13.00
2023-04-28T08:19:30.634Z,10.40
2023-04-28T08:22:33.914Z,10.60
2023-04-28T08:25:37.202Z,10.00
2023-04-28T08:28:40.466Z,8.00
2023-04-28T08:31:43.957Z,7.00
2023-04-28T08:34:49.400Z,9.00
2023-04-28T08:37:53.661Z,7.00
2023-04-28T08:40:56.970Z,5.33
2023-04-28T08:44:00.278Z,9.20
2023-04-28T08:47:06.351Z,8.00
2023-04-28T08:50:12.611Z,11.00
2023-04-28T08:53:18.583Z,9.00
2023-04-28T08:56:25.653Z,8.00
2023-04-28T08:59:29.473Z,9.00
2023-04-28T09:02:33.047Z,9.00
2023-04-28T09:05:38.033Z,9.00
2023-04-28T09:08:41.335Z,12.00
2023-04-28T09:11:52.637Z,9.00
2023-04-28T09:14:59.675Z,9.50
2023-04-28T09:18:03.991Z,9.00
2023-04-28T09:21:10.211Z,9.40
2023-04-28T09:24:27.145Z,8.40
2023-04-28T09:27:30.678Z,8.00
2023-04-28T09:30:41.270Z,10.00
2023-04-28T09:33:58.256Z,9.40
2023-04-28T09:37:16.682Z,8.80
2023-04-28T09:40:20.737Z,7.00
2023-04-28T09:43:32.397Z,7.00
2023-04-28T09:46:35.837Z,11.00
2023-04-28T09:49:55.108Z,10.00
2023-04-28T09:53:00.392Z,8.60
2023-04-28T09:56:06.558Z,8.00
2023-04-28T09:59:09.918Z,11.00
2023-04-28T10:02:40.993Z,11.00
2023-04-28T10:05:40.031Z,8.20
2023-04-28T10:08:48.230Z,9.50
2023-04-28T10:11:51.930Z,9.60
2023-04-28T10:14:55.453Z,9.00
2023-04-28T10:18:00.150Z,9.20
2023-04-28T10:21:05.209Z,9.00
2023-04-28T10:24:19.513Z,9.00
2023-04-28T10:27:28.878Z,11.40
2023-04-28T10:30:32.153Z,10.20
2023-04-28T10:33:35.551Z,10.80
2023-04-28T10:36:53.083Z,10.00
2023-04-28T10:40:34.659Z,9.00
2023-04-28T10:43:39.945Z,9.40
2023-04-28T10:47:02.211Z,9.00
2023-04-28T10:50:09.697Z,9.00
2023-04-28T10:53:13.116Z,11.25
2023-04-28T10:56:19.558Z,8.00
2023-04-28T10:59:30.109Z,9.00
2023-04-28T11:02:44.890Z,8.00
2023-04-28T11:06:22.016Z,8.80
2023-04-28T11:09:50.658Z,8.00
2023-04-28T11:13:34.098Z,9.00
2023-04-28T11:16:50.604Z,9.00
2023-04-28T11:19:57.520Z,9.00
2023-04-28T11:23:00.994Z,8.20
2023-04-28T11:26:05.095Z,9.60
2023-04-28T11:29:10.091Z,11.33
2023-04-28T11:32:13.399Z,8.00
2023-04-28T11:35:17.184Z,8.80
2023-04-28T11:38:20.415Z,8.40
2023-04-28T11:41:24.336Z,7.40
2023-04-28T11:44:30.495Z,6.00
2023-04-28T11:47:35.466Z,8.25
2023-04-28T11:50:39.367Z,6.60
2023-04-28T11:53:43.713Z,8.00
2023-04-28T11:56:47.328Z,10.00
2023-04-28T11:59:52.272Z,8.00
2023-04-28T12:02:55.796Z,12.00
2023-04-28T12:05:59.328Z,8.00
2023-04-28T12:09:06.033Z,6.75
2023-04-28T12:12:10.790Z,8.00
2023-04-28T12:15:15.837Z,8.00
2023-04-28T12:18:19.931Z,9.00
2023-04-28T12:21:23.435Z,6.00
2023-04-28T12:24:27.225Z,7.80
2023-04-28T12:27:31.752Z,8.00
2023-04-28T12:30:39.040Z,9.00
2023-04-28T12:33:42.344Z,7.00
2023-04-28T12:36:46.554Z,7.00
2023-04-28T12:39:51.467Z,8.20
2023-04-28T12:42:54.880Z,10.60
2023-04-28T12:46:00.574Z,10.00
2023-04-28T12:49:03.981Z,6.50
2023-04-28T12:52:08.213Z,8.00
2023-04-28T12:55:11.811Z,11.40
2023-04-28T12:58:15.300Z,10.00
2023-04-28T13:01:20.088Z,12.00
2023-04-28T13:04:23.559Z,11.00
2023-04-28T13:07:26.880Z,10.40
2023-04-28T13:10:30.156Z,13.00
2023-04-28T13:13:33.392Z,10.00
2023-04-28T13:16:38.358Z,9.00
2023-04-28T13:19:42.203Z,13.75
2023-04-28T13:22:45.517Z,9.00
2023-04-28T13:25:48.808Z,8.00
2023-04-28T13:28:53.194Z,6.60
2023-04-28T13:31:58.012Z,7.00
2023-04-28T13:35:01.281Z,8.40
2023-04-28T13:38:04.604Z,10.67
2023-04-28T13:41:08.654Z,9.00
2023-04-28T13:44:11.914Z,8.00
2023-04-28T13:47:16.996Z,7.40
2023-04-28T13:50:20.399Z,8.00
2023-04-28T13:53:23.630Z,9.60
2023-04-28T13:56:26.915Z,10.00
2023-04-28T13:59:30.429Z,9.00
2023-04-28T14:02:35.128Z,8.00
2023-04-28T14:05:48.965Z,8.25
2023-04-28T14:08:53.125Z,10.00
2023-04-28T14:11:56.709Z,8.00
2023-04-28T14:14:59.916Z,10.80
2023-04-28T14:18:04.928Z,9.80
2023-04-28T14:21:08.590Z,8.20
2023-04-28T14:24:12.016Z,9.40
2023-04-28T14:27:15.799Z,10.00
2023-04-28T14:30:20.161Z,8.75
2023-04-28T14:33:24.798Z,9.60
2023-04-28T14:36:28.375Z,9.80
2023-04-28T14:39:31.651Z,10.00
2023-04-28T14:42:37.400Z,10.40
2023-04-28T15:15:49.192Z,11.00
2023-04-28T15:18:53.912Z,9.00
2023-04-28T15:21:57.416Z,9.40
2023-04-28T15:25:01.828Z,9.60
2023-04-28T15:28:07.418Z,10.40
2023-04-28T15:31:10.705Z,10.00
2023-04-28T15:34:15.662Z,11.00
2023-04-28T15:37:47.753Z,9.00
2023-04-28T15:40:51.160Z,10.00
2023-04-28T15:43:55.929Z,7.00
2023-04-28T15:46:59.355Z,9.75
2023-04-28T15:50:04.326Z,10.20
2023-04-28T15:53:08.179Z,10.50
2023-04-28T15:56:11.564Z,10.00
2023-04-28T15:59:18.479Z,10.40
2023-04-28T16:02:23.669Z,8.00
2023-04-28T16:05:28.506Z,10.00
2023-04-28T16:08:32.205Z,8.40
2023-04-28T16:11:35.434Z,7.80
2023-04-28T16:14:38.993Z,7.00
2023-04-28T16:17:44.499Z,9.00
2023-04-28T16:20:49.803Z,10.00
2023-04-28T16:23:53.688Z,9.00
2023-04-28T16:26:56.936Z,8.00
2023-04-28T16:30:00.332Z,8.00
2023-04-28T16:33:03.679Z,11.00
2023-04-28T16:36:08.566Z,9.20
2023-04-28T16:39:12.284Z,10.25
2023-04-28T16:42:15.660Z,10.00
2023-04-28T16:45:19.118Z,11.60
2023-04-28T16:48:23.277Z,11.00
2023-04-28T16:51:28.982Z,12.00
2023-04-28T16:54:33.253Z,10.25
2023-04-28T16:57:36.536Z,10.00
2023-04-28T17:00:40.719Z,11.00
2023-04-28T17:03:44.079Z,11.50
2023-04-28T17:06:49.237Z,11.00
2023-04-28T17:09:52.843Z,9.50
2023-04-28T17:12:56.439Z,10.80
2023-04-28T17:16:00.436Z,13.00
2023-04-28T17:19:05.309Z,11.60
2023-04-28T17:22:10.424Z,12.40
2023-04-28T17:25:14.670Z,9.00
2023-04-28T17:28:17.884Z,11.00
2023-04-28T17:31:22.036Z,8.75
2023-04-28T17:34:25.304Z,14.00
2023-04-28T17:37:31.444Z,10.60
2023-04-28T17:40:34.692Z,10.75
2023-04-28T17:43:39.414Z,11.20
2023-04-28T17:46:42.948Z,11.00
2023-04-28T17:49:46.308Z,10.40
2023-04-28T17:52:51.157Z,12.00
2023-04-28T17:55:54.339Z,13.60
2023-04-28T17:58:57.611Z,13.20
2023-04-28T18:02:00.924Z,11.80
2023-04-28T18:05:04.566Z,12.40
2023-04-28T18:08:09.462Z,12.60
2023-04-28T18:11:12.762Z,13.40
2023-04-28T18:14:18.426Z,14.40
2023-04-28T18:17:23.281Z,12.50
2023-04-28T18:20:26.986Z,14.50
2023-04-28T18:23:32.011Z,15.00
2023-04-28T18:26:35.228Z,16.40
2023-04-28T18:29:38.551Z,16.00
2023-04-28T18:32:42.315Z,14.40
2023-04-28T18:35:47.100Z,14.75
2023-04-28T18:38:51.720Z,13.00
2023-04-28T18:41:54.985Z,15.00
2023-04-28T18:44:59.037Z,16.60
2023-04-28T18:48:03.223Z,15.40
2023-04-28T18:51:06.872Z,16.25
2023-04-28T18:54:11.665Z,14.00
2023-04-28T18:57:15.073Z,17.00
2023-04-28T19:00:18.791Z,15.80
2023-04-28T19:03:22.912Z,70.75
2023-04-28T19:06:27.234Z,26.60
2023-04-28T19:09:32.372Z,30.80
2023-04-28T19:12:35.578Z,21.67
2023-04-28T19:15:38.796Z,18.00
2023-04-28T19:18:42.412Z,21.75
2023-04-28T19:21:46.038Z,22.00
2023-04-28T19:24:50.820Z,23.00
2023-04-28T19:27:54.075Z,18.00
2023-04-28T19:30:58.862Z,20.00
2023-04-28T19:34:02.123Z,18.75
2023-04-28T19:37:09.896Z,16.00
2023-04-28T19:40:15.058Z,18.00
2023-04-28T19:43:18.353Z,21.80
2023-04-28T19:46:21.746Z,15.25
2023-04-28T19:49:25.216Z,15.80
2023-04-28T19:52:29.031Z,19.50
2023-04-28T19:55:33.771Z,18.00
2023-04-28T19:58:37.827Z,16.00
2023-04-28T20:01:43.466Z,20.40
2023-04-28T20:04:47.143Z,19.40
2023-04-28T20:07:51.080Z,17.00
2023-04-28T20:10:56.380Z,20.00
2023-04-28T20:13:59.655Z,18.00
2023-04-28T20:17:04.134Z,19.00
2023-04-28T20:20:08.593Z,16.50
2023-04-28T20:23:11.864Z,18.25
2023-04-28T20:26:17.920Z,15.00
2023-04-28T20:29:21.200Z,16.75
2023-04-28T20:32:24.446Z,19.00
2023-04-28T20:35:27.732Z,18.00
2023-04-28T20:38:31.061Z,20.60
2023-04-28T20:41:36.847Z,20.00
2023-04-28T20:44:41.084Z,17.00
2023-04-28T20:47:44.300Z,17.25
2023-04-28T20:50:48.989Z,16.20
2023-04-28T20:53:52.217Z,16.00
2023-04-28T20:56:56.863Z,17.00
2023-04-28T21:00:00.140Z,17.00
2023-04-28T21:03:04.713Z,17.50
2023-04-28T21:06:08.349Z,19.00
2023-04-28T21:09:11.962Z,16.50
2023-04-28T21:12:16.811Z,19.60
2023-04-28T21:15:20.310Z,15.00
2023-04-28T21:18:23.590Z,18.80
2023-04-28T21:21:26.989Z,17.60
2023-04-28T21:24:30.271Z,19.00
2023-04-28T21:27:34.970Z,16.67
2023-04-28T21:30:38.578Z,16.00
2023-04-28T21:33:41.799Z,16.00
2023-04-28T21:36:44.996Z,20.40
2023-04-28T21:39:48.446Z,20.20
2023-04-28T21:42:53.165Z,15.00
2023-04-28T21:45:56.527Z,17.00
2023-04-28T21:48:59.823Z,22.80
2023-04-28T21:52:03.604Z,20.25
2023-04-28T21:55:07.945Z,19.00
2023-04-28T21:58:13.128Z,20.00
2023-04-28T22:01:18.441Z,17.60
2023-04-28T22:04:22.201Z,19.60
2023-04-28T22:07:25.893Z,18.00
2023-04-28T22:10:30.538Z,16.80
2023-04-28T22:13:36.570Z,17.25
2023-04-28T22:16:39.899Z,22.00
2023-04-28T22:19:43.214Z,16.60
2023-04-28T22:22:46.897Z,19.75
2023-04-28T22:25:50.173Z,17.20
2023-04-28T22:28:55.335Z,18.80
2023-04-28T22:31:59.084Z,22.00
2023-04-28T22:35:02.418Z,22.00
2023-04-28T22:38:05.724Z,23.20
2023-04-28T22:41:08.899Z,22.40
2023-04-28T22:44:13.952Z,21.00
2023-04-28T22:47:18.069Z,23.60
2023-04-28T22:50:21.715Z,25.00
2023-04-28T22:53:24.876Z,24.50
2023-04-28T22:56:28.343Z,21.60
2023-04-28T22:59:34.210Z,23.00
2023-04-28T23:02:37.632Z,26.00
2023-04-28T23:05:40.925Z,21.60
2023-04-28T23:08:44.215Z,23.00
2023-04-28T23:11:47.419Z,22.00
2023-04-28T23:14:52.111Z,24.50
2023-04-28T23:17:55.515Z,26.00
2023-04-28T23:20:58.800Z,23.50
2023-04-28T23:24:02.049Z,23.00
2023-04-28T23:27:05.627Z,23.00
2023-04-28T23:30:11.844Z,21.80
2023-04-28T23:33:15.158Z,24.67
2023-04-28T23:36:19.389Z,25.40
2023-04-28T23:39:22.638Z,23.60
2023-04-28T23:42:27.077Z,21.00
2023-04-28T23:45:31.790Z,24.60
2023-04-28T23:48:35.959Z,22.20
2023-04-28T23:51:41.017Z,25.40
2023-04-28T23:54:44.275Z,25.00
2023-04-28T23:57:47.473Z,25.00
